• Join FlightAware (Why Join?)
  • Login
  • US Flag 
10:06PM EST


 

Airport Tracker/Info


-or-


 

Live Flight TrackerFlight Track Log ✈ N960DL ✈ 19-Apr-2013 ✈ KATL - KRIC

Flight Track Log - Related Links

Times and Time Zones

All times are in EDT time to prevent confusion due to time zone crossing. See the N960DL flight status page for this flight to view local times or setup timezone preferences in your user account.

Time Position Orientation Groundspeed Altitude Reporting Facility
EDT Latitude Longitude Course Direction KTS MPH feet Rate Location/Type
07:40AM 33.6264 -84.5028 53° Northeast 446 513 3,200  Level Atlanta Center
07:41AM 33.5947 -84.5700 241° Southwest 333 383 6,600 3,060 Climbing Atlanta Center
07:42AM 33.7507 -83.9767 54° Northeast  Level FlightAware Approximate
07:42AM 33.5333 -84.5833 190° South 242 278 9,300  Level Atlanta TRACON
07:43AM 33.8264 -83.8506 54° Northeast  Level FlightAware Approximate
07:44AM 33.9072 -83.7293 48° Northeast  Level FlightAware Approximate
07:44AM 33.4492 -84.4744 133° Southeast 255 293 13,600  Level Atlanta Center
07:45AM 33.9859 -83.6057 53° Northeast  Level FlightAware Approximate
07:45AM 33.4558 -84.3525 86° East 303 349 14,800  Level Atlanta Center
07:46AM 34.0635 -83.4809 53° Northeast  Level FlightAware Approximate
07:46AM 33.5103 -84.2306 62° Northeast 387 445 16,600  Level Atlanta Center
07:47AM 33.6250 -84.1636 26° Northeast 388 447 18,900 2,220 Climbing Atlanta Center
07:48AM 33.7358 -84.0814 32° Northeast 433 498 21,100 1,980 Climbing Atlanta Center
07:49AM 33.8089 -83.9464 57° Northeast 474 545 22,900 1,620 Climbing Atlanta Center
07:50AM 33.8797 -83.8061 59° Northeast 479 551 24,400 1,500 Climbing Atlanta Center
07:51AM 33.9606 -83.6681 55° Northeast 493 567 25,900 1,500 Climbing Atlanta Center
07:52AM 34.0478 -83.5275 53° Northeast 515 593 27,500 1,380 Climbing Atlanta Center
07:53AM 34.1244 -83.4064 53° Northeast 515 593 28,700 720 Climbing Atlanta Center
07:54AM 34.2092 -83.2703 53° Northeast 509 586 29,000 120 Climbing Atlanta Center
07:55AM 34.2981 -83.1336 52° Northeast 509 586 29,000  Level Atlanta Center
07:56AM 34.3825 -82.9942 54° Northeast 508 585 29,000  Level Atlanta Center
07:57AM 34.4647 -82.8547 54° Northeast 508 585 29,000  Level Atlanta Center
07:58AM 34.5489 -82.7222 52° Northeast 508 585 29,000  Level Atlanta Center
07:59AM 34.6392 -82.5769 53° Northeast 503 579 29,000  Level Atlanta Center
08:00AM 34.7231 -82.4364 54° Northeast 503 579 29,000 300 Level Atlanta Center
08:01AM 34.8067 -82.3008 53° Northeast 503 579 29,600 960 Climbing Atlanta Center
08:02AM 34.8903 -82.1675 53° Northeast 503 579 31,000 1,320 Climbing Atlanta Center
08:03AM 34.9592 -82.0442 56° Northeast 497 572 32,300 960 Climbing Atlanta Center
08:04AM 35.0383 -81.9131 54° Northeast 486 559 33,000 300 Climbing Atlanta Center
08:05AM 35.1192 -81.7636 56° Northeast 480 552 33,000  Level Atlanta Center
08:06AM 35.1917 -81.6244 57° Northeast 480 552 33,000  Level Atlanta Center
08:07AM 35.2642 -81.4875 57° Northeast 480 552 33,000  Level Atlanta Center
08:08AM 35.3381 -81.3453 57° Northeast 488 562 33,000  Level Atlanta Center
08:09AM 35.4081 -81.2053 58° Northeast 488 562 33,000  Level Atlanta Center
08:10AM 35.4839 -81.0597 57° Northeast 488 562 33,000  Level Atlanta Center
08:11AM 35.5597 -80.9217 56° Northeast 493 567 33,000  Level Atlanta Center
08:12AM 35.6333 -80.7783 58° Northeast 493 567 33,000  Level Atlanta Center
08:13AM 35.7047 -80.6425 57° Northeast 488 562 33,000  Level Atlanta Center
08:14AM 35.7778 -80.5014 57° Northeast 488 562 33,000 -420 Level Atlanta Center
08:16AM 35.9092 -80.2439 58° Northeast 498 573 31,900 -900 Descending Washington Center
08:17AM 35.9769 -80.1069 59° Northeast 485 558 30,500 -1,500 Descending Washington Center
08:18AM 36.0508 -79.9750 55° Northeast 462 532 29,000 -780 Descending Washington Center
08:19AM 36.1267 -79.8350 56° Northeast 473 544 29,000 -300 Level Washington Center
08:20AM 36.1936 -79.7100 56° Northeast 479 551 28,500 -900 Descending Washington Center
08:21AM 36.2781 -79.5600 55° Northeast 484 557 27,200 -1,440 Descending Washington Center
08:22AM 36.3575 -79.4247 54° Northeast 484 557 25,700 -1,440 Descending Washington Center
08:23AM 36.4242 -79.2989 57° Northeast 479 551 24,400 -1,740 Descending Washington Center
08:24AM 36.5058 -79.1553 55° Northeast 474 545 22,300 -1,740 Descending Washington Center
08:25AM 36.5783 -79.0319 54° Northeast 467 537 21,000 -1,320 Descending Washington Center
08:26AM 36.6506 -78.9058 54° Northeast 452 520 19,700 -1,020 Descending Washington Center
08:27AM 36.7169 -78.7711 58° Northeast 452 520 19,000 -360 Descending Washington Center
08:28AM 36.7803 -78.6572 55° Northeast 447 514 19,000  Level Washington Center
08:29AM 36.8503 -78.5300 55° Northeast 447 514 19,000  Level Washington Center
08:30AM 36.9244 -78.3953 55° Northeast 436 502 19,000 -600 Level Washington Center
08:31AM 36.9961 -78.2706 54° Northeast 436 502 17,800 -1,800 Descending Washington Center
08:32AM 37.0506 -78.1683 56° Northeast 436 502 15,500 -2,820 Descending Washington Center
08:33AM 37.1203 -78.0300 58° Northeast 436 502 12,200 -2,760 Descending Washington Center
08:34AM 37.1872 -77.9094 55° Northeast 436 502 10,000 -1,260 Descending Washington Center
08:35AM 37.2456 -77.8017 56° Northeast 412 474 9,700 -780 Descending Washington Center
08:36AM 37.2975 -77.7039 56° Northeast 368 423 8,500 -1,320 Descending Washington Center
08:37AM 37.3469 -77.6114 56° Northeast 333 383 7,100 -1,560 Descending Washington Center
08:38AM 37.4228 -77.5661 25° Northeast 293 337 5,400 -1,440 Descending Washington Center
08:39AM 37.5067 -77.5500 North 282 325 4,300 -720 Descending Washington Center
08:40AM 37.5861 -77.5364 North 282 325 4,000 -600 Descending Washington Center
08:42AM 37.7000 -77.4833 20° North 199 229 2,500 -480 Descending Potomac TRACON
08:43AM 37.6667 -77.4500 142° Southeast 156 180 2,500  Level Potomac TRACON
08:44AM 37.6333 -77.4167 142° Southeast 156 180 2,500  Level Potomac TRACON